createdAt,value
2019-06-07T00:00:52.076Z,17.10
2019-06-07T00:03:29.729Z,13.83
2019-06-07T00:05:53.092Z,18.33
2019-06-07T00:08:28.385Z,14.80
2019-06-07T00:10:54.110Z,17.73
2019-06-07T00:13:26.742Z,16.23
2019-06-07T00:15:56.410Z,16.67
2019-06-07T00:18:26.360Z,15.93
2019-06-07T00:20:56.731Z,14.53
2019-06-07T00:23:26.415Z,16.97
2019-06-07T00:25:57.817Z,17.80
2019-06-07T00:28:27.449Z,21.30
2019-06-07T00:30:57.116Z,20.03
2019-06-07T00:33:28.498Z,14.60
2019-06-07T00:36:00.537Z,18.77
2019-06-07T00:38:30.174Z,25.70
2019-06-07T00:40:59.854Z,20.27
2019-06-07T00:43:31.013Z,18.13
2019-06-07T00:46:02.102Z,18.10
2019-06-07T00:48:32.819Z,21.03
2019-06-07T00:51:02.916Z,19.23
2019-06-07T00:53:32.849Z,19.53
2019-06-07T00:56:02.715Z,14.83
2019-06-07T00:58:32.585Z,20.97
2019-06-07T01:01:02.187Z,18.03
2019-06-07T01:03:31.817Z,14.87
2019-06-07T01:06:01.422Z,23.50
2019-06-07T01:08:31.052Z,14.27
2019-06-07T01:11:00.732Z,13.70
2019-06-07T01:13:30.288Z,17.73
2019-06-07T01:15:59.914Z,18.77
2019-06-07T01:18:42.885Z,17.40
2019-06-07T01:21:02.513Z,22.03
2019-06-07T01:24:05.436Z,15.50
2019-06-07T01:26:03.503Z,12.30
2019-06-07T01:28:33.125Z,12.50
2019-06-07T01:31:02.726Z,23.97
2019-06-07T01:33:50.395Z,19.53
2019-06-07T01:36:03.775Z,16.20
2019-06-07T01:38:33.379Z,16.07
2019-06-07T01:41:03.044Z,20.17
2019-06-07T01:43:32.674Z,20.50
2019-06-07T01:46:02.361Z,20.30
2019-06-07T01:48:49.112Z,16.53
2019-06-07T01:51:06.080Z,21.07
2019-06-07T01:53:35.708Z,12.70
2019-06-07T01:56:05.612Z,19.00
2019-06-07T01:58:35.232Z,12.80
2019-06-07T02:01:04.916Z,13.93
2019-06-07T02:03:34.546Z,18.37
2019-06-07T02:06:04.380Z,16.67
2019-06-07T02:08:34.543Z,18.77
2019-06-07T02:11:05.898Z,21.07
2019-06-07T02:13:35.615Z,18.23
2019-06-07T02:16:07.048Z,16.47
2019-06-07T02:18:36.777Z,19.40
2019-06-07T02:24:02.149Z,18.93
2019-06-07T02:26:32.634Z,17.50
2019-06-07T02:29:02.457Z,13.57
2019-06-07T02:31:38.622Z,13.33
2019-06-07T02:34:03.413Z,17.67
2019-06-07T02:36:40.829Z,21.83
2019-06-07T02:39:06.650Z,20.63
2019-06-07T02:41:40.028Z,14.37
2019-06-07T02:44:08.299Z,17.53
2019-06-07T02:46:46.838Z,13.03
2019-06-07T02:49:09.530Z,14.53
2019-06-07T02:51:41.687Z,16.17
2019-06-07T02:54:13.354Z,17.13
2019-06-07T02:56:56.155Z,14.70
2019-06-07T02:59:14.395Z,13.57
2019-06-07T03:01:44.773Z,13.40
2019-06-07T03:04:17.190Z,16.10
2019-06-07T03:06:50.205Z,22.60
2019-06-07T03:09:20.140Z,15.83
2019-06-07T03:11:53.943Z,16.23
2019-06-07T03:14:26.317Z,15.47
2019-06-07T03:17:02.381Z,21.33
2019-06-07T03:19:37.767Z,14.07
2019-06-07T03:22:07.931Z,19.83
2019-06-07T03:24:41.129Z,17.30
2019-06-07T03:27:32.683Z,16.40
2019-06-07T03:29:41.435Z,12.90
2019-06-07T03:32:11.276Z,12.37
2019-06-07T03:34:43.552Z,16.67
2019-06-07T03:37:13.427Z,20.03
2019-06-07T03:39:45.832Z,17.30
2019-06-07T03:42:17.099Z,10.60
2019-06-07T03:44:46.697Z,14.90
2019-06-07T03:47:16.329Z,18.47
2019-06-07T03:49:45.941Z,16.80
2019-06-07T03:52:15.610Z,13.37
2019-06-07T03:54:45.213Z,16.63
2019-06-07T03:57:14.886Z,15.43
2019-06-07T03:59:46.149Z,21.83
2019-06-07T04:02:15.892Z,15.60
2019-06-07T04:04:45.499Z,17.70
2019-06-07T04:07:15.075Z,17.33
2019-06-07T04:09:44.702Z,15.10
2019-06-07T04:12:14.300Z,16.00
2019-06-07T04:14:45.577Z,14.37
2019-06-07T04:17:15.165Z,16.73
2019-06-07T04:19:44.788Z,11.70
2019-06-07T04:22:14.460Z,17.33
2019-06-07T04:24:44.083Z,17.13
2019-06-07T04:27:13.774Z,15.07
2019-06-07T04:30:05.349Z,14.20
2019-06-07T04:32:19.204Z,15.30
2019-06-07T04:34:48.943Z,14.17
2019-06-07T04:37:19.343Z,15.70
2019-06-07T04:39:53.848Z,16.93
2019-06-07T04:42:27.017Z,14.53
2019-06-07T04:45:00.098Z,13.67
2019-06-07T04:47:33.804Z,12.13
2019-06-07T04:50:05.093Z,19.13
2019-06-07T04:52:36.915Z,12.30
2019-06-07T04:55:07.605Z,14.57
2019-06-07T04:57:39.501Z,14.37
2019-06-07T05:00:46.189Z,13.30
2019-06-07T05:02:43.082Z,21.07
2019-06-07T05:05:11.882Z,14.13
2019-06-07T05:07:46.135Z,16.13
2019-06-07T05:10:14.724Z,11.00
2019-06-07T05:12:44.535Z,16.27
2019-06-07T05:15:14.283Z,10.77
2019-06-07T05:17:45.211Z,8.18
2019-06-07T05:20:16.541Z,12.37
2019-06-07T05:22:46.268Z,13.15
2019-06-07T05:25:16.841Z,12.90
2019-06-07T05:27:47.109Z,12.82
2019-06-07T05:33:01.908Z,17.42
2019-06-07T05:35:33.125Z,13.93
2019-06-07T05:38:03.042Z,17.02
2019-06-07T05:40:43.850Z,9.40
2019-06-07T05:43:26.959Z,11.75
2019-06-07T05:45:56.704Z,9.05
2019-06-07T05:48:26.852Z,13.68
2019-06-07T05:50:58.191Z,11.03
2019-06-07T05:53:27.999Z,12.33
2019-06-07T05:55:58.794Z,15.32
2019-06-07T05:58:30.376Z,18.00
2019-06-07T06:01:40.819Z,9.43
2019-06-07T06:03:31.325Z,9.50
2019-06-07T06:06:03.620Z,18.05
2019-06-07T06:08:37.511Z,11.55
2019-06-07T06:11:04.701Z,10.30
2019-06-07T06:13:34.450Z,12.10
2019-06-07T06:16:04.284Z,15.80
2019-06-07T06:18:38.020Z,13.13
2019-06-07T06:21:19.166Z,12.78
2019-06-07T06:23:43.379Z,22.13
2019-06-07T06:26:13.555Z,11.12
2019-06-07T06:28:45.254Z,10.25
2019-06-07T06:31:14.784Z,13.40
2019-06-07T06:33:45.207Z,16.10
2019-06-07T06:36:15.772Z,9.65
2019-06-07T06:38:47.141Z,14.05
2019-06-07T06:41:17.135Z,12.75
2019-06-07T06:43:50.329Z,22.80
2019-06-07T06:46:38.220Z,13.20
2019-06-07T06:48:55.316Z,8.78
2019-06-07T06:51:23.995Z,9.40
2019-06-07T06:53:53.625Z,11.65
2019-06-07T06:56:24.374Z,10.03
2019-06-07T07:01:25.504Z,7.83
2019-06-07T07:04:11.382Z,8.55
2019-06-07T07:06:27.247Z,8.40
2019-06-07T07:08:58.598Z,7.28
2019-06-07T07:11:28.353Z,9.70
2019-06-07T07:14:00.873Z,10.63
2019-06-07T07:16:29.718Z,7.83
2019-06-07T07:18:59.317Z,9.93
2019-06-07T07:21:29.041Z,7.30
2019-06-07T07:24:20.550Z,7.35
2019-06-07T07:26:30.423Z,9.23
2019-06-07T07:29:00.185Z,7.62
2019-06-07T07:31:29.954Z,7.00
2019-06-07T07:34:28.256Z,7.47
2019-06-07T07:36:39.291Z,6.95
2019-06-07T07:39:07.205Z,7.62
2019-06-07T07:41:36.789Z,7.17
2019-06-07T07:44:07.922Z,10.80
2019-06-07T07:46:37.960Z,8.30
2019-06-07T07:49:09.178Z,7.40
2019-06-07T07:51:38.839Z,7.83
2019-06-07T07:54:11.230Z,8.03
2019-06-07T07:56:39.931Z,6.78
2019-06-07T07:59:09.679Z,11.03
2019-06-07T08:01:39.439Z,7.70
2019-06-07T08:04:09.087Z,7.25
2019-06-07T08:06:38.721Z,11.03
2019-06-07T08:09:10.787Z,13.48
2019-06-07T08:11:40.412Z,6.97
2019-06-07T08:14:10.060Z,7.72
2019-06-07T08:16:39.710Z,7.15
2019-06-07T08:19:09.346Z,6.92
2019-06-07T08:21:38.979Z,9.15
2019-06-07T08:24:08.730Z,6.58
2019-06-07T08:26:38.357Z,9.73
2019-06-07T08:29:08.044Z,6.90
2019-06-07T08:31:37.674Z,7.08
2019-06-07T08:34:07.379Z,9.00
2019-06-07T08:36:42.396Z,8.95
2019-06-07T08:39:09.160Z,6.72
2019-06-07T08:41:53.390Z,6.95
2019-06-07T08:44:23.450Z,6.22
2019-06-07T08:46:41.585Z,8.25
2019-06-07T08:49:11.213Z,10.32
2019-06-07T08:51:40.833Z,9.35
2019-06-07T08:54:22.157Z,16.90
2019-06-07T08:56:43.571Z,8.95
2019-06-07T08:59:13.549Z,10.50
2019-06-07T09:01:43.261Z,9.33
2019-06-07T09:04:12.862Z,7.05
2019-06-07T09:09:13.974Z,7.25
2019-06-07T09:11:43.704Z,9.00
2019-06-07T09:14:13.343Z,7.35
2019-06-07T09:16:43.015Z,8.23
2019-06-07T09:19:12.677Z,10.88
2019-06-07T09:21:42.243Z,9.15
2019-06-07T09:24:12.297Z,7.95
2019-06-07T09:26:42.028Z,11.35
2019-06-07T09:29:12.489Z,12.90
2019-06-07T09:31:52.422Z,6.80
2019-06-07T09:34:15.131Z,7.83
2019-06-07T09:36:45.094Z,12.58
2019-06-07T09:39:14.850Z,10.78
2019-06-07T09:41:49.647Z,9.15
2019-06-07T09:44:24.621Z,10.38
2019-06-07T09:47:08.405Z,6.90
2019-06-07T09:49:32.277Z,6.65
2019-06-07T09:51:51.818Z,8.78
2019-06-07T09:56:52.972Z,9.80
2019-06-07T09:59:22.611Z,9.05
2019-06-07T10:01:54.006Z,11.80
2019-06-07T10:04:31.226Z,12.07
2019-06-07T10:06:55.059Z,12.88
2019-06-07T10:11:56.544Z,9.70
2019-06-07T10:14:27.557Z,7.30
2019-06-07T10:16:58.694Z,11.45
2019-06-07T10:19:28.412Z,10.68
2019-06-07T10:21:59.143Z,9.33
2019-06-07T10:24:28.779Z,11.85
2019-06-07T10:26:59.598Z,6.62
2019-06-07T10:29:29.350Z,7.33
2019-06-07T10:32:00.060Z,8.08
2019-06-07T10:34:33.919Z,8.98
2019-06-07T10:37:08.763Z,9.58
2019-06-07T10:39:48.172Z,12.15
2019-06-07T10:42:07.789Z,9.93
2019-06-07T10:44:38.283Z,10.72
2019-06-07T10:47:08.246Z,9.28
2019-06-07T10:49:38.091Z,8.33
2019-06-07T10:52:08.577Z,7.78
2019-06-07T10:54:39.456Z,8.65
2019-06-07T10:57:12.142Z,11.10
2019-06-07T10:59:40.599Z,9.55
2019-06-07T11:02:11.923Z,14.75
2019-06-07T11:04:41.766Z,7.97
2019-06-07T11:07:12.066Z,8.08
2019-06-07T11:09:41.835Z,8.25
2019-06-07T11:12:12.528Z,9.55
2019-06-07T11:14:42.399Z,7.67
2019-06-07T11:17:13.411Z,12.58
2019-06-07T11:19:43.273Z,11.60
2019-06-07T11:22:14.177Z,8.13
2019-06-07T11:24:44.610Z,10.53
2019-06-07T11:27:16.429Z,12.75
2019-06-07T11:29:45.950Z,21.02
2019-06-07T11:32:15.636Z,17.67
2019-06-07T11:34:45.482Z,7.70
2019-06-07T11:37:16.102Z,9.28
2019-06-07T11:39:45.970Z,8.48
2019-06-07T11:42:15.803Z,8.38
2019-06-07T11:44:56.317Z,9.28
2019-06-07T11:47:16.748Z,9.13
2019-06-07T11:49:46.508Z,8.75
2019-06-07T11:52:17.694Z,10.88
2019-06-07T11:54:48.230Z,9.50
2019-06-07T11:57:17.955Z,10.82
2019-06-07T11:59:47.631Z,10.00
2019-06-07T12:02:17.676Z,11.68
2019-06-07T12:04:47.468Z,14.93
2019-06-07T12:07:19.802Z,12.60
2019-06-07T12:09:56.321Z,15.53
2019-06-07T12:12:20.659Z,10.23
2019-06-07T12:14:50.503Z,8.83
2019-06-07T12:17:20.236Z,8.70
2019-06-07T12:19:49.852Z,9.23
2019-06-07T12:22:20.037Z,9.65
2019-06-07T12:24:49.837Z,14.13
2019-06-07T12:27:20.785Z,9.53
2019-06-07T12:29:50.475Z,7.55
2019-06-07T12:32:21.466Z,8.18
2019-06-07T12:34:51.283Z,13.15
2019-06-07T12:37:25.463Z,9.10
2019-06-07T12:39:52.225Z,9.33
2019-06-07T12:42:22.660Z,10.10
2019-06-07T12:44:52.464Z,9.03
2019-06-07T12:47:23.269Z,7.40
2019-06-07T12:49:52.993Z,9.15
2019-06-07T12:52:23.466Z,11.40
2019-06-07T12:54:54.339Z,9.03
2019-06-07T12:57:24.268Z,7.53
2019-06-07T12:59:54.024Z,6.65
2019-06-07T13:02:25.405Z,6.60
2019-06-07T13:04:55.359Z,8.68
2019-06-07T13:07:24.980Z,15.90
2019-06-07T13:09:54.648Z,7.25
2019-06-07T13:12:24.404Z,8.05
2019-06-07T13:14:54.166Z,11.20
2019-06-07T13:17:24.162Z,6.72
2019-06-07T13:19:53.899Z,9.58
2019-06-07T13:22:24.417Z,7.05
2019-06-07T13:24:54.135Z,8.70
2019-06-07T13:27:25.412Z,11.95
2019-06-07T13:29:55.006Z,8.30
2019-06-07T13:32:24.759Z,8.83
2019-06-07T13:34:54.495Z,7.75
2019-06-07T13:37:25.382Z,7.28
2019-06-07T13:39:55.255Z,7.97
2019-06-07T13:42:24.884Z,7.70
2019-06-07T13:44:54.692Z,7.67
2019-06-07T13:47:25.335Z,6.45
2019-06-07T13:49:55.516Z,5.97
2019-06-07T13:52:25.468Z,8.13
2019-06-07T13:54:55.232Z,9.13
2019-06-07T13:57:26.063Z,9.05
2019-06-07T13:59:55.735Z,8.10
2019-06-07T14:02:26.189Z,10.68
2019-06-07T14:04:56.892Z,7.62
2019-06-07T14:07:28.608Z,6.22
2019-06-07T14:09:58.418Z,7.42
2019-06-07T14:12:28.077Z,14.83
2019-06-07T14:14:57.773Z,7.87
2019-06-07T14:17:28.228Z,6.25
2019-06-07T14:19:59.767Z,10.55
2019-06-07T14:22:31.084Z,4.97
2019-06-07T14:25:00.934Z,6.90
2019-06-07T14:27:31.897Z,7.42
2019-06-07T14:30:01.802Z,6.70
2019-06-07T14:32:32.742Z,6.92
2019-06-07T14:35:02.796Z,13.08
2019-06-07T14:37:33.071Z,10.08
2019-06-07T14:40:03.178Z,8.95
2019-06-07T14:42:33.447Z,5.62
2019-06-07T14:45:06.104Z,6.15
2019-06-07T14:47:35.168Z,8.90
2019-06-07T14:50:08.277Z,8.98
2019-06-07T14:52:38.104Z,8.10
2019-06-07T14:55:09.444Z,7.53
2019-06-07T14:57:39.473Z,6.92
2019-06-07T15:00:14.743Z,10.43
2019-06-07T15:02:44.482Z,8.05
2019-06-07T15:05:15.786Z,5.75
2019-06-07T15:07:45.543Z,7.22
2019-06-07T15:10:15.354Z,8.90
2019-06-07T15:12:45.286Z,8.60
2019-06-07T15:15:15.216Z,6.75
2019-06-07T15:17:44.948Z,7.95
2019-06-07T15:20:15.310Z,10.48
2019-06-07T15:22:45.104Z,8.03
2019-06-07T15:25:15.051Z,11.03
2019-06-07T15:27:44.706Z,10.10
2019-06-07T15:30:15.839Z,6.95
2019-06-07T15:32:45.576Z,5.03
2019-06-07T15:35:17.110Z,10.23
2019-06-07T15:37:46.801Z,13.68
2019-06-07T15:40:16.906Z,9.08
2019-06-07T15:42:52.826Z,7.47
2019-06-07T15:45:19.002Z,9.10
2019-06-07T15:47:48.703Z,11.97
2019-06-07T15:50:18.611Z,11.95
2019-06-07T15:52:48.342Z,13.03
2019-06-07T15:55:20.072Z,8.40
2019-06-07T15:57:49.829Z,8.53
2019-06-07T16:00:20.799Z,9.38
2019-06-07T16:02:52.436Z,15.83
2019-06-07T16:05:22.814Z,13.80
2019-06-07T16:07:52.676Z,6.17
2019-06-07T16:10:22.582Z,8.98
2019-06-07T16:13:00.050Z,12.35
2019-06-07T16:15:23.975Z,10.90
2019-06-07T16:17:53.669Z,7.70
2019-06-07T16:20:23.585Z,16.65
2019-06-07T16:22:53.440Z,9.60
2019-06-07T16:25:23.223Z,9.08
2019-06-07T16:27:52.985Z,7.78
2019-06-07T16:30:23.119Z,8.30
2019-06-07T16:32:52.853Z,10.70
2019-06-07T16:35:22.688Z,9.80
2019-06-07T16:37:52.748Z,11.65
2019-06-07T16:40:23.503Z,9.05
2019-06-07T16:42:53.406Z,9.93
2019-06-07T16:45:23.543Z,11.78
2019-06-07T16:47:53.339Z,8.63
2019-06-07T16:50:23.172Z,8.58
2019-06-07T16:52:52.999Z,10.30
2019-06-07T16:55:23.071Z,9.20
2019-06-07T16:57:52.848Z,13.58
2019-06-07T17:00:23.390Z,9.80
2019-06-07T17:02:53.049Z,6.85
2019-06-07T17:05:23.004Z,9.00
2019-06-07T17:07:52.686Z,11.28
2019-06-07T17:10:22.603Z,8.03
2019-06-07T17:12:52.256Z,10.40
2019-06-07T17:15:22.160Z,9.08
2019-06-07T17:17:51.935Z,7.15
2019-06-07T17:20:22.035Z,9.40
2019-06-07T17:22:51.736Z,6.72
2019-06-07T17:25:21.863Z,7.47
2019-06-07T17:27:51.613Z,14.07
2019-06-07T17:30:22.853Z,9.10
2019-06-07T17:32:59.003Z,12.33
2019-06-07T17:35:24.194Z,7.95
2019-06-07T17:37:54.023Z,7.78
2019-06-07T17:40:23.923Z,7.80
2019-06-07T17:42:53.753Z,8.65
2019-06-07T17:45:24.460Z,10.00
2019-06-07T17:47:54.146Z,8.50
2019-06-07T17:50:23.951Z,9.33
2019-06-07T17:52:53.776Z,6.92
2019-06-07T17:55:23.616Z,11.90
2019-06-07T17:57:53.455Z,6.17
2019-06-07T18:00:29.077Z,10.35
2019-06-07T18:02:56.347Z,8.38
2019-06-07T18:05:26.106Z,9.95
2019-06-07T18:07:58.212Z,7.53
2019-06-07T18:10:40.860Z,7.95
2019-06-07T18:13:10.728Z,9.90
2019-06-07T18:15:51.499Z,11.03
2019-06-07T18:18:20.556Z,6.17
2019-06-07T18:20:53.430Z,12.25
2019-06-07T18:23:22.708Z,9.05
2019-06-07T18:25:52.655Z,8.95
2019-06-07T18:28:22.524Z,9.83
2019-06-07T18:30:52.826Z,12.37
2019-06-07T18:33:22.664Z,9.65
2019-06-07T18:35:53.323Z,13.62
2019-06-07T18:38:23.083Z,8.18
2019-06-07T18:40:53.267Z,11.73
2019-06-07T18:43:23.036Z,14.87
2019-06-07T18:45:57.604Z,9.80
2019-06-07T18:48:27.333Z,10.63
2019-06-07T18:50:59.051Z,12.47
2019-06-07T18:53:29.017Z,9.05
2019-06-07T18:55:58.774Z,7.85
2019-06-07T18:58:28.442Z,8.90
2019-06-07T19:00:58.141Z,12.18
2019-06-07T19:03:27.936Z,10.90
2019-06-07T19:05:58.334Z,11.60
2019-06-07T19:08:28.183Z,11.45
2019-06-07T19:11:00.858Z,15.45
2019-06-07T19:13:30.665Z,7.28
2019-06-07T19:16:00.295Z,11.40
2019-06-07T19:18:30.035Z,7.20
2019-06-07T19:21:00.638Z,11.33
2019-06-07T19:23:31.117Z,11.70
2019-06-07T19:26:00.819Z,13.15
2019-06-07T19:28:31.947Z,11.80
2019-06-07T19:31:01.690Z,8.65
2019-06-07T19:33:31.456Z,17.90
2019-06-07T19:36:01.771Z,14.43
2019-06-07T19:38:31.703Z,13.48
2019-06-07T19:41:16.498Z,14.55
2019-06-07T19:43:34.932Z,12.53
2019-06-07T19:46:05.476Z,14.53
2019-06-07T19:48:35.111Z,11.20
2019-06-07T19:51:04.861Z,12.37
2019-06-07T19:53:34.622Z,12.40
2019-06-07T19:56:05.904Z,11.57
2019-06-07T19:58:35.612Z,13.15
2019-06-07T20:01:05.349Z,19.82
2019-06-07T20:03:35.181Z,10.85
2019-06-07T20:06:04.876Z,12.68
2019-06-07T20:08:34.551Z,10.88
2019-06-07T20:11:04.845Z,13.43
2019-06-07T20:13:34.641Z,16.02
2019-06-07T20:16:05.116Z,13.60
2019-06-07T20:18:34.785Z,13.72
2019-06-07T20:21:04.970Z,9.80
2019-06-07T20:23:34.750Z,12.63
2019-06-07T20:26:04.835Z,14.63
2019-06-07T20:28:34.604Z,10.98
2019-06-07T20:31:05.930Z,12.18
2019-06-07T20:33:35.971Z,11.57
2019-06-07T20:36:05.735Z,12.60
2019-06-07T20:38:35.542Z,10.53
2019-06-07T20:41:05.455Z,20.08
2019-06-07T20:43:35.271Z,15.83
2019-06-07T20:46:05.476Z,12.63
2019-06-07T20:48:36.348Z,11.23
2019-06-07T20:51:06.533Z,17.17
2019-06-07T20:53:36.360Z,11.20
2019-06-07T20:56:06.839Z,12.83
2019-06-07T20:58:36.781Z,11.10
2019-06-07T21:01:06.946Z,16.80
2019-06-07T21:03:36.727Z,14.80
2019-06-07T21:06:07.516Z,20.13
2019-06-07T21:08:37.272Z,13.45
2019-06-07T21:11:07.780Z,15.05
2019-06-07T21:13:37.600Z,13.10
2019-06-07T21:16:08.248Z,12.83
2019-06-07T21:18:38.060Z,13.20
2019-06-07T21:21:08.555Z,14.43
2019-06-07T21:23:38.374Z,16.17
2019-06-07T21:26:09.056Z,20.62
2019-06-07T21:28:39.861Z,13.17
2019-06-07T21:31:10.459Z,15.10
2019-06-07T21:33:40.202Z,14.98
2019-06-07T21:36:09.960Z,18.23
2019-06-07T21:38:39.704Z,12.80
2019-06-07T21:41:10.612Z,12.28
2019-06-07T21:43:40.489Z,13.07
2019-06-07T21:46:17.242Z,15.27
2019-06-07T21:48:41.644Z,17.02
2019-06-07T21:51:12.629Z,12.63
2019-06-07T21:53:42.452Z,11.70
2019-06-07T21:56:13.439Z,12.00
2019-06-07T21:58:43.239Z,14.40
2019-06-07T22:01:17.350Z,16.20
2019-06-07T22:03:47.127Z,18.07
2019-06-07T22:06:17.094Z,18.53
2019-06-07T22:08:47.000Z,13.57
2019-06-07T22:11:16.896Z,10.93
2019-06-07T22:13:46.493Z,20.33
2019-06-07T22:16:26.811Z,12.90
2019-06-07T22:18:47.572Z,12.80
2019-06-07T22:21:17.374Z,20.70
2019-06-07T22:23:47.286Z,23.50
2019-06-07T22:26:17.056Z,14.77
2019-06-07T22:28:46.823Z,15.40
2019-06-07T22:31:16.702Z,18.27
2019-06-07T22:33:46.468Z,12.70
2019-06-07T22:36:16.225Z,14.20
2019-06-07T22:38:46.012Z,24.53
2019-06-07T22:41:16.027Z,18.13
2019-06-07T22:43:45.763Z,20.23
2019-06-07T22:46:15.535Z,16.67
2019-06-07T22:48:45.226Z,19.63
2019-06-07T22:51:16.425Z,14.50
2019-06-07T22:53:46.397Z,16.33
2019-06-07T22:56:18.250Z,18.03
2019-06-07T22:58:48.073Z,16.63
2019-06-07T23:01:20.062Z,14.67
2019-06-07T23:03:49.414Z,16.50
2019-06-07T23:06:19.121Z,18.47
2019-06-07T23:08:48.895Z,14.80
2019-06-07T23:11:19.515Z,19.07
2019-06-07T23:13:49.253Z,18.40
2019-06-07T23:16:19.914Z,12.80
2019-06-07T23:18:52.047Z,19.40
2019-06-07T23:21:21.064Z,16.13
2019-06-07T23:23:52.195Z,15.60
2019-06-07T23:26:21.904Z,16.50
2019-06-07T23:28:53.204Z,14.60
2019-06-07T23:31:23.068Z,17.20
2019-06-07T23:33:52.965Z,16.17
2019-06-07T23:36:22.939Z,14.63
2019-06-07T23:38:52.804Z,15.30
2019-06-07T23:41:24.555Z,14.97
2019-06-07T23:43:57.251Z,17.23
2019-06-07T23:46:28.476Z,17.50
2019-06-07T23:49:01.151Z,15.70
2019-06-07T23:51:30.754Z,14.13
2019-06-07T23:54:00.554Z,17.03
2019-06-07T23:56:30.183Z,16.83
2019-06-07T23:59:01.366Z,16.07
